createdAt,value
2018-09-10T00:02:02.565Z,147676.92
2018-09-10T00:04:32.581Z,147660.78
2018-09-10T00:07:02.414Z,147644.66
2018-09-10T00:09:32.812Z,147639.69
2018-09-10T00:12:02.720Z,147649.61
2018-09-10T00:14:32.499Z,147628.47
2018-09-10T00:17:02.385Z,147637.16
2018-09-10T00:19:32.285Z,147611.09
2018-09-10T00:22:02.234Z,147616.06
2018-09-10T00:24:32.145Z,147617.30
2018-09-10T00:27:01.970Z,147604.89
2018-09-10T00:29:31.760Z,147617.30
2018-09-10T00:32:01.592Z,147603.66
2018-09-10T00:34:32.387Z,147584.98
2018-09-10T00:37:02.263Z,147589.95
2018-09-10T00:39:32.449Z,147596.20
2018-09-10T00:42:02.467Z,147604.89
2018-09-10T00:44:33.264Z,147596.20
2018-09-10T00:47:03.047Z,147591.19
2018-09-10T00:49:32.988Z,147592.48
2018-09-10T00:52:02.932Z,147582.50
2018-09-10T00:54:32.847Z,147584.98
2018-09-10T00:57:02.637Z,147576.31
2018-09-10T00:59:32.252Z,147589.95
2018-09-10T01:02:01.817Z,147618.53
2018-09-10T01:04:31.327Z,147614.81
2018-09-10T01:07:00.908Z,147601.17
2018-09-10T01:09:30.387Z,147613.58
2018-09-10T01:11:59.892Z,147609.84
2018-09-10T01:14:30.022Z,147616.06
2018-09-10T01:17:00.398Z,147613.58
2018-09-10T01:19:30.311Z,147624.75
2018-09-10T01:22:01.028Z,147625.98
2018-09-10T01:24:32.005Z,147623.50
2018-09-10T01:27:01.850Z,147624.75
2018-09-10T01:29:31.724Z,147630.95
2018-09-10T01:32:01.414Z,147625.98
2018-09-10T01:34:36.190Z,147628.47
2018-09-10T01:37:05.999Z,147614.81
2018-09-10T01:39:37.096Z,147627.22
2018-09-10T01:42:07.101Z,147614.81
2018-09-10T01:44:37.159Z,147619.78
2018-09-10T01:47:06.950Z,147617.30
2018-09-10T01:49:37.289Z,147613.58
2018-09-10T01:52:07.116Z,147614.81
2018-09-10T01:54:36.820Z,147599.92
2018-09-10T01:57:06.833Z,147614.81
2018-09-10T01:59:37.773Z,147609.84
2018-09-10T02:02:07.684Z,147616.06
2018-09-10T02:04:37.929Z,147627.22
2018-09-10T02:07:08.100Z,147593.72
2018-09-10T02:09:38.205Z,147589.95
2018-09-10T02:12:12.442Z,147580.03
2018-09-10T02:14:42.563Z,147576.31
2018-09-10T02:17:12.739Z,147560.17
2018-09-10T02:19:42.868Z,147536.50
2018-09-10T02:22:14.043Z,147517.91
2018-09-10T02:24:44.078Z,147529.06
2018-09-10T02:27:15.052Z,147503.02
2018-09-10T02:29:46.069Z,147484.36
2018-09-10T02:32:16.108Z,147491.80
2018-09-10T02:34:46.276Z,147485.59
2018-09-10T02:37:16.349Z,147465.75
2018-09-10T02:39:50.227Z,147485.59
2018-09-10T02:42:21.117Z,147479.39
2018-09-10T02:44:51.288Z,147496.77
2018-09-10T02:47:21.402Z,147491.80
2018-09-10T02:49:52.767Z,147478.16
2018-09-10T02:52:22.773Z,147483.12
2018-09-10T02:54:53.071Z,147504.25
2018-09-10T02:57:23.778Z,147488.08
2018-09-10T02:59:54.947Z,147510.45
2018-09-10T03:02:25.313Z,147514.17
2018-09-10T03:04:55.460Z,147514.17
2018-09-10T03:07:25.661Z,147530.30
2018-09-10T03:09:55.737Z,147525.34
2018-09-10T03:12:25.552Z,147496.77
2018-09-10T03:14:55.776Z,147517.91
2018-09-10T03:17:26.927Z,147527.83
2018-09-10T03:19:57.017Z,147507.97
2018-09-10T03:22:27.059Z,147509.22
2018-09-10T03:24:57.030Z,147512.94
2018-09-10T03:27:27.491Z,147511.69
2018-09-10T03:29:58.596Z,147505.50
2018-09-10T03:32:29.029Z,147500.53
2018-09-10T03:34:59.749Z,147495.52
2018-09-10T03:37:29.839Z,147521.63
2018-09-10T03:39:59.735Z,147524.09
2018-09-10T03:42:29.609Z,147503.02
2018-09-10T03:45:00.049Z,147495.52
2018-09-10T03:47:30.265Z,147479.39
2018-09-10T03:50:00.775Z,147488.08
2018-09-10T03:52:30.774Z,147478.16
2018-09-10T03:55:00.910Z,147480.64
2018-09-10T03:57:31.785Z,147512.94
2018-09-10T04:00:01.973Z,147527.83
2018-09-10T04:02:33.041Z,147527.83
2018-09-10T04:05:03.089Z,147557.69
2018-09-10T04:07:33.327Z,147580.03
2018-09-10T04:10:03.458Z,147604.89
2018-09-10T04:12:35.137Z,147622.27
2018-09-10T04:15:05.573Z,147645.89
2018-09-10T04:17:35.228Z,147653.34
2018-09-10T04:20:09.603Z,147668.23
2018-09-10T04:22:42.236Z,147681.88
2018-09-10T04:25:12.636Z,147689.38
2018-09-10T04:27:42.374Z,147694.34
2018-09-10T04:30:15.548Z,147699.31
2018-09-10T04:32:45.651Z,147714.20
2018-09-10T04:35:15.665Z,147703.03
2018-09-10T04:37:45.628Z,147720.41
2018-09-10T04:40:15.316Z,147763.91
2018-09-10T04:42:45.003Z,147770.11
2018-09-10T04:45:15.631Z,147798.72
2018-09-10T04:47:46.693Z,147801.25
2018-09-10T04:50:17.545Z,147823.59
2018-09-10T04:52:47.282Z,147859.66
2018-09-10T04:55:17.356Z,147847.23
2018-09-10T04:57:47.296Z,147882.06
2018-09-10T05:00:17.002Z,147888.27
2018-09-10T05:02:46.645Z,147930.55
2018-09-10T05:05:16.379Z,147951.66
2018-09-10T05:07:47.286Z,147955.39
2018-09-10T05:10:17.179Z,147979.03
2018-09-10T05:12:46.964Z,147987.73
2018-09-10T05:15:17.889Z,148027.53
2018-09-10T05:17:49.380Z,148059.89
2018-09-10T05:20:19.251Z,148109.66
2018-09-10T05:22:48.949Z,148120.88
2018-09-10T05:25:18.940Z,148160.70
2018-09-10T05:27:49.135Z,148306.34
2018-09-10T05:30:20.284Z,148550.45
2018-09-10T05:32:50.608Z,148870.78
2018-09-10T05:35:20.730Z,149016.73
2018-09-10T05:37:50.949Z,149156.50
2018-09-10T05:40:21.047Z,149383.69
2018-09-10T05:42:51.027Z,149622.28
2018-09-10T05:45:21.170Z,149648.53
2018-09-10T05:47:51.938Z,149906.09
2018-09-10T05:50:21.998Z,149913.64
2018-09-10T05:52:51.757Z,149977.39
2018-09-10T05:55:22.360Z,150061.25
2018-09-10T05:57:52.946Z,150158.81
2018-09-10T06:00:25.890Z,150091.23
2018-09-10T06:02:56.099Z,150146.31
2018-09-10T06:05:25.901Z,150367.89
2018-09-10T06:07:55.562Z,150557.02
2018-09-10T06:10:25.655Z,150771.31
2018-09-10T06:12:55.295Z,150778.81
2018-09-10T06:15:25.152Z,150770.05
2018-09-10T06:17:54.983Z,150752.47
2018-09-10T06:20:26.703Z,150828.98
2018-09-10T06:22:56.604Z,151183.89
2018-09-10T06:25:28.717Z,151611.98
2018-09-10T06:27:58.471Z,151161.33
2018-09-10T06:30:28.161Z,151170.11
2018-09-10T06:32:57.990Z,151360.84
2018-09-10T06:35:27.812Z,151279.28
2018-09-10T06:37:57.696Z,151611.98
2018-09-10T06:40:27.362Z,151976.44
2018-09-10T06:42:57.359Z,151980.19
2018-09-10T06:45:27.205Z,151902.27
2018-09-10T06:59:28.144Z,151188.91
2018-09-10T07:01:57.800Z,150976.94
2018-09-10T07:04:27.494Z,150549.50
2018-09-10T07:06:57.235Z,150430.47
2018-09-10T07:09:27.132Z,150188.86
2018-09-10T07:11:56.937Z,150004.92
2018-09-10T07:14:26.807Z,149723.58
2018-09-10T07:16:57.279Z,149603.56
2018-09-10T07:19:27.009Z,149427.39
2018-09-10T07:21:56.887Z,149374.95
2018-09-10T07:24:26.595Z,149247.61
2018-09-10T07:26:56.409Z,149246.36
2018-09-10T07:29:26.385Z,149240.08
2018-09-10T07:31:56.899Z,149183.94
2018-09-10T07:34:27.229Z,149202.67
2018-09-10T07:36:57.744Z,149227.61
2018-09-10T07:39:28.011Z,149180.19
2018-09-10T07:41:58.627Z,149168.97
2018-09-10T07:44:28.872Z,149129.03
2018-09-10T07:47:00.263Z,149172.70
2018-09-10T07:49:31.102Z,149151.52
2018-09-10T07:52:01.563Z,149186.42
2018-09-10T07:54:31.973Z,149196.39
2018-09-10T07:57:02.228Z,149241.33
2018-09-10T07:59:34.563Z,149232.59
2018-09-10T08:02:04.858Z,149230.11
2018-09-10T08:04:34.932Z,149262.56
2018-09-10T08:07:05.305Z,149307.50
2018-09-10T08:09:37.001Z,149353.75
2018-09-10T08:12:07.450Z,149342.53
2018-09-10T08:14:38.627Z,149347.52
2018-09-10T08:17:08.777Z,149343.77
2018-09-10T08:19:39.850Z,149369.97
2018-09-10T08:22:09.731Z,149388.72
2018-09-10T08:24:39.740Z,149456.12
2018-09-10T08:27:09.745Z,149501.14
2018-09-10T08:29:39.825Z,149496.16
2018-09-10T08:32:10.038Z,149522.34
2018-09-10T08:34:40.487Z,149516.11
2018-09-10T08:37:11.600Z,149456.12
2018-09-10T08:39:42.050Z,149463.61
2018-09-10T08:42:12.588Z,149502.39
2018-09-10T08:44:43.489Z,149528.59
2018-09-10T08:47:13.845Z,149511.13
2018-09-10T08:49:43.975Z,149529.88
2018-09-10T08:52:15.460Z,149511.13
2018-09-10T08:54:46.015Z,149516.11
2018-09-10T08:57:16.265Z,149516.11
2018-09-10T08:59:46.784Z,149549.84
2018-09-10T09:02:18.053Z,149544.86
2018-09-10T09:04:48.433Z,149533.62
2018-09-10T09:07:22.798Z,149524.84
2018-09-10T09:09:53.779Z,149586.09
2018-09-10T09:12:25.499Z,149633.56
2018-09-10T09:14:55.192Z,149627.31
2018-09-10T09:17:25.084Z,149664.77
2018-09-10T09:19:54.967Z,149688.58
2018-09-10T09:22:25.328Z,149646.05
2018-09-10T09:24:56.475Z,149677.34
2018-09-10T09:27:26.943Z,149703.56
2018-09-10T09:29:57.039Z,149648.53
2018-09-10T09:32:28.306Z,149674.84
2018-09-10T09:34:59.491Z,149637.31
2018-09-10T09:37:35.235Z,149653.53
2018-09-10T09:40:10.308Z,149643.55
2018-09-10T09:42:45.842Z,149637.31
2018-09-10T09:45:20.988Z,149699.81
2018-09-10T09:47:52.192Z,149673.59
2018-09-10T09:50:23.116Z,149677.34
2018-09-10T09:52:53.360Z,149681.09
2018-09-10T09:55:24.060Z,149698.56
2018-09-10T09:57:54.824Z,149681.09
2018-09-10T10:00:30.152Z,149668.50
2018-09-10T10:03:04.908Z,149714.80
2018-09-10T10:05:35.879Z,149758.53
2018-09-10T10:08:06.050Z,149759.78
2018-09-10T10:10:36.723Z,149799.78
2018-09-10T10:13:07.035Z,149778.56
2018-09-10T10:15:37.066Z,149789.81
2018-09-10T10:18:08.540Z,149838.55
2018-09-10T10:20:38.411Z,149853.59
2018-09-10T10:23:08.523Z,149861.08
2018-09-10T10:25:38.782Z,149923.62
2018-09-10T10:28:09.153Z,149918.63
2018-09-10T10:30:40.386Z,149943.61
2018-09-10T10:33:11.749Z,149954.86
2018-09-10T10:35:42.019Z,149953.61
2018-09-10T10:38:12.431Z,149951.11
2018-09-10T10:40:42.798Z,149971.14
2018-09-10T10:43:13.834Z,149991.12
2018-09-10T10:45:44.048Z,150008.67
2018-09-10T10:48:15.151Z,150098.78
2018-09-10T10:50:47.240Z,150138.78
2018-09-10T10:53:18.207Z,150158.81
2018-09-10T10:55:48.927Z,150309.03
2018-09-10T10:58:19.672Z,150351.64
2018-09-10T11:00:49.932Z,150263.97
2018-09-10T11:03:20.314Z,150241.47
2018-09-10T11:05:50.566Z,150196.41
2018-09-10T11:08:21.786Z,150170.06
2018-09-10T11:10:54.031Z,150140.02
2018-09-10T11:13:24.421Z,150208.91
2018-09-10T11:15:54.632Z,150267.72
2018-09-10T11:18:25.052Z,150296.53
2018-09-10T11:20:56.537Z,150231.42
2018-09-10T11:23:28.369Z,150170.06
2018-09-10T11:25:58.486Z,150238.91
2018-09-10T11:28:29.873Z,150202.66
2018-09-10T11:31:00.053Z,150212.66
2018-09-10T11:33:30.352Z,150240.16
2018-09-10T11:36:02.315Z,150055.00
2018-09-10T11:38:32.511Z,150146.31
2018-09-10T11:41:03.601Z,150092.48
2018-09-10T11:43:34.700Z,150136.28
2018-09-10T11:46:04.762Z,150250.22
2018-09-10T11:48:36.171Z,150221.41
2018-09-10T11:51:06.661Z,150294.02
2018-09-10T11:53:37.702Z,150317.78
2018-09-10T11:56:07.635Z,150296.53
2018-09-10T11:58:37.690Z,150228.91
2018-09-10T12:01:10.316Z,150226.41
2018-09-10T12:03:40.500Z,150151.31
2018-09-10T12:06:10.671Z,150123.78
2018-09-10T12:08:41.058Z,150117.53
2018-09-10T12:11:11.308Z,150163.81
2018-09-10T12:13:42.595Z,150223.91
2018-09-10T12:16:12.619Z,150268.97
2018-09-10T12:18:42.739Z,150192.63
2018-09-10T12:21:12.775Z,150261.47
2018-09-10T12:23:43.042Z,150271.47
2018-09-10T12:26:13.283Z,150286.47
2018-09-10T12:28:43.493Z,150276.47
2018-09-10T12:31:14.877Z,150291.53
2018-09-10T12:33:45.776Z,150236.41
2018-09-10T12:36:15.772Z,150178.88
2018-09-10T12:38:46.596Z,150131.28
2018-09-10T12:41:17.127Z,150101.28
2018-09-10T12:43:47.344Z,150123.78
2018-09-10T12:46:17.986Z,150150.06
2018-09-10T12:48:50.226Z,150136.28
2018-09-10T12:51:20.216Z,150113.78
2018-09-10T12:53:50.205Z,150193.91
2018-09-10T12:56:20.796Z,150188.86
2018-09-10T12:58:50.833Z,150231.42
2018-09-10T13:01:23.775Z,150287.72
2018-09-10T13:03:53.880Z,150341.63
2018-09-10T13:06:23.986Z,150319.03
2018-09-10T13:08:54.447Z,150218.91
2018-09-10T13:11:24.579Z,150185.13
2018-09-10T13:13:56.352Z,150157.56
2018-09-10T13:16:26.422Z,150131.28
2018-09-10T13:18:56.448Z,150106.28
2018-09-10T13:21:26.486Z,150082.48
2018-09-10T13:23:56.517Z,150128.78
2018-09-10T13:26:28.145Z,150143.78
2018-09-10T13:28:58.144Z,150183.87
2018-09-10T13:31:28.064Z,150081.25
2018-09-10T13:33:59.449Z,150056.25
2018-09-10T13:36:29.745Z,150057.50
2018-09-10T13:39:00.034Z,150011.22
2018-09-10T13:41:31.103Z,149989.87
2018-09-10T13:44:01.289Z,150003.63
2018-09-10T13:46:32.858Z,149986.13
2018-09-10T13:49:03.695Z,149956.11
2018-09-10T13:51:34.094Z,149916.13
2018-09-10T13:54:04.395Z,149962.41
2018-09-10T13:56:38.695Z,149984.88
2018-09-10T13:59:08.523Z,149956.11
2018-09-10T14:01:39.777Z,149988.64
2018-09-10T14:04:10.998Z,150018.72
2018-09-10T14:06:43.712Z,150021.22
2018-09-10T14:09:18.138Z,150004.92
2018-09-10T14:11:48.997Z,150037.45
2018-09-10T14:14:20.082Z,150034.95
2018-09-10T14:16:50.691Z,150016.22
2018-09-10T14:19:20.859Z,149947.36
2018-09-10T14:21:51.158Z,149958.66
2018-09-10T14:24:21.957Z,149904.84
2018-09-10T14:26:53.219Z,149898.59
2018-09-10T14:29:24.774Z,149814.83
2018-09-10T14:31:54.992Z,149844.84
2018-09-10T14:34:26.497Z,149818.58
2018-09-10T14:36:57.764Z,149788.56
2018-09-10T14:39:28.119Z,149801.03
2018-09-10T14:41:58.188Z,149768.58
2018-09-10T14:44:29.110Z,149788.56
2018-09-10T14:47:00.442Z,149786.06
2018-09-10T14:49:30.685Z,149744.81
2018-09-10T14:52:00.764Z,149778.56
2018-09-10T14:54:31.244Z,149802.28
2018-09-10T14:57:01.371Z,149823.56
2018-09-10T14:59:33.232Z,149828.56
2018-09-10T15:02:03.318Z,149847.34
2018-09-10T15:04:33.939Z,149868.63
2018-09-10T15:07:04.703Z,149869.88
2018-09-10T15:09:34.749Z,149849.84
2018-09-10T15:12:04.911Z,149829.81
2018-09-10T15:14:35.037Z,149811.03
2018-09-10T15:17:05.524Z,149811.03
2018-09-10T15:19:36.019Z,149843.59
2018-09-10T15:22:05.996Z,149866.13
2018-09-10T15:24:35.956Z,149871.13
2018-09-10T15:27:05.841Z,149851.09
2018-09-10T15:29:36.062Z,149789.81
2018-09-10T15:32:12.125Z,149812.28
2018-09-10T15:34:42.350Z,149816.08
2018-09-10T15:37:12.569Z,149814.83
2018-09-10T15:39:45.159Z,149784.81
2018-09-10T15:42:16.293Z,149741.06
2018-09-10T15:44:47.476Z,149691.08
2018-09-10T15:47:17.537Z,149671.06
2018-09-10T15:49:47.700Z,149682.34
2018-09-10T15:52:18.490Z,149696.06
2018-09-10T15:54:49.148Z,149683.59
2018-09-10T15:57:19.218Z,149652.28
2018-09-10T15:59:49.970Z,149636.06
2018-09-10T16:02:20.141Z,149646.05
2018-09-10T16:04:50.061Z,149642.30
2018-09-10T16:07:20.289Z,149626.08
2018-09-10T16:09:50.540Z,149579.84
2018-09-10T16:12:21.043Z,149551.09
2018-09-10T16:14:53.442Z,149543.61
2018-09-10T16:17:23.519Z,149491.11
2018-09-10T16:19:55.278Z,149461.13
2018-09-10T16:22:25.984Z,149426.14
2018-09-10T16:24:56.044Z,149401.19
2018-09-10T16:27:26.195Z,149364.97
2018-09-10T16:29:58.240Z,149358.73
2018-09-10T16:32:28.189Z,149317.53
2018-09-10T16:34:58.201Z,149311.30
2018-09-10T16:37:29.273Z,149332.50
2018-09-10T16:39:59.796Z,149297.53
2018-09-10T16:42:30.773Z,149251.34
2018-09-10T16:45:07.022Z,149187.67
2018-09-10T16:47:36.858Z,149205.17
2018-09-10T16:50:07.452Z,149175.20
2018-09-10T16:52:37.347Z,149161.48
2018-09-10T16:55:07.564Z,149152.77
2018-09-10T16:57:39.536Z,149135.27
2018-09-10T17:00:10.149Z,149071.61
2018-09-10T17:02:42.445Z,149051.63
2018-09-10T17:05:13.617Z,149054.11
2018-09-10T17:07:44.331Z,149025.45
2018-09-10T17:10:14.561Z,149016.73
2018-09-10T17:12:44.843Z,149034.17
2018-09-10T17:15:16.379Z,149030.44
2018-09-10T17:17:46.733Z,149022.97
2018-09-10T17:20:16.879Z,149042.89
2018-09-10T17:22:47.325Z,149029.19
2018-09-10T17:25:18.153Z,149034.17
2018-09-10T17:27:49.607Z,149034.17
2018-09-10T17:30:20.226Z,149037.91
2018-09-10T17:32:52.245Z,149060.39
2018-09-10T17:35:23.074Z,149065.38
2018-09-10T17:37:54.999Z,149094.03
2018-09-10T17:40:25.826Z,149119.06
2018-09-10T17:42:56.015Z,149155.25
2018-09-10T17:45:27.885Z,149172.70
2018-09-10T17:47:57.913Z,149172.70
2018-09-10T17:50:28.047Z,149210.16
2018-09-10T17:52:58.362Z,149206.41
2018-09-10T17:55:29.111Z,149216.39
2018-09-10T17:57:59.664Z,149225.12
2018-09-10T18:00:29.801Z,149221.38
2018-09-10T18:03:00.200Z,149201.44
2018-09-10T18:05:30.877Z,149188.91
2018-09-10T18:08:02.309Z,149208.91
2018-09-10T18:10:33.651Z,149140.25
2018-09-10T18:13:06.141Z,149105.31
2018-09-10T18:15:38.269Z,149100.27
2018-09-10T18:18:08.224Z,149105.31
2018-09-10T18:20:38.453Z,149121.56
2018-09-10T18:23:08.740Z,149099.03
2018-09-10T18:25:38.856Z,149081.58
2018-09-10T18:28:09.284Z,149050.38
2018-09-10T18:30:39.321Z,149029.19
2018-09-10T18:33:09.817Z,149009.25
2018-09-10T18:35:41.727Z,148998.00
2018-09-10T18:38:12.265Z,148989.27
2018-09-10T18:40:42.755Z,148986.78
2018-09-10T18:44:43.672Z,148968.09
2018-09-10T18:47:16.185Z,148886.97
2018-09-10T18:49:46.985Z,148880.75
2018-09-10T18:52:18.176Z,148855.78
2018-09-10T18:54:49.026Z,148879.50
2018-09-10T18:57:19.710Z,148882.00
2018-09-10T18:59:50.645Z,148860.77
2018-09-10T19:02:20.557Z,148870.78
2018-09-10T19:04:54.784Z,148855.78
2018-09-10T19:07:25.063Z,148859.53
2018-09-10T19:09:55.432Z,148834.63
2018-09-10T19:12:33.485Z,148818.38
2018-09-10T19:15:03.298Z,148832.12
2018-09-10T19:17:33.129Z,148852.06
2018-09-10T19:20:08.429Z,148838.36
2018-09-10T19:22:39.553Z,148833.38
2018-09-10T19:25:09.486Z,148828.39
2018-09-10T19:27:40.386Z,148825.91
2018-09-10T19:30:11.519Z,148834.63
2018-09-10T19:32:42.681Z,148835.86
2018-09-10T19:35:13.403Z,148835.86
2018-09-10T19:37:43.468Z,148723.66
2018-09-10T19:40:14.903Z,148834.63
2018-09-10T19:42:44.917Z,148805.92
2018-09-10T19:45:14.836Z,148812.16
2018-09-10T19:47:45.198Z,148829.63
2018-09-10T19:50:16.282Z,148820.92
2018-09-10T19:52:48.046Z,148792.23
2018-09-10T19:55:20.333Z,148777.28
2018-09-10T19:57:53.084Z,148772.25
2018-09-10T20:00:24.050Z,148767.28
2018-09-10T20:02:54.375Z,148742.38
2018-09-10T20:05:25.596Z,148732.41
2018-09-10T20:07:57.399Z,148748.59
2018-09-10T20:10:29.587Z,148744.88
2018-09-10T20:12:59.930Z,148752.34
2018-09-10T20:15:29.946Z,148757.31
2018-09-10T20:17:59.601Z,148748.59
2018-09-10T20:20:30.217Z,148739.88
2018-09-10T20:23:00.788Z,148741.12
2018-09-10T20:25:32.094Z,148733.66
2018-09-10T20:28:02.875Z,148733.66
2018-09-10T20:30:34.096Z,148719.92
2018-09-10T20:33:04.803Z,148702.44
2018-09-10T20:35:35.850Z,148685.00
2018-09-10T20:38:06.521Z,148665.05
2018-09-10T20:40:36.779Z,148652.59
2018-09-10T20:43:06.888Z,148653.84
2018-09-10T20:45:37.365Z,148661.31
2018-09-10T20:48:07.686Z,148667.53
2018-09-10T20:50:38.085Z,148653.84
2018-09-10T20:53:08.980Z,148631.44
2018-09-10T20:55:39.741Z,148652.59
2018-09-10T20:58:10.979Z,148651.34
2018-09-10T21:00:41.191Z,148650.11
2018-09-10T21:03:11.701Z,148640.16
2018-09-10T21:05:42.595Z,148643.89
2018-09-10T21:08:13.621Z,148641.39
2018-09-10T21:10:43.933Z,148638.91
2018-09-10T21:13:13.752Z,148640.16
2018-09-10T21:15:43.729Z,148626.41
2018-09-10T21:18:13.410Z,148652.59
2018-09-10T21:20:43.247Z,148638.91
2018-09-10T21:23:14.528Z,148647.63
2018-09-10T21:25:44.773Z,148632.69
2018-09-10T21:28:15.517Z,148620.19
2018-09-10T21:30:45.454Z,148620.19
2018-09-10T21:33:15.607Z,148628.91
2018-09-10T21:35:45.292Z,148630.14
2018-09-10T21:38:14.968Z,148626.41
2018-09-10T21:40:46.306Z,148636.42
2018-09-10T21:43:18.287Z,148633.94
2018-09-10T21:45:48.622Z,148633.94
2018-09-10T21:48:18.471Z,148652.59
2018-09-10T21:50:48.137Z,148630.14
2018-09-10T21:53:18.311Z,148627.66
2018-09-10T21:55:48.011Z,148636.42
2018-09-10T21:58:17.923Z,148618.94
2018-09-10T22:00:57.730Z,148626.41
2018-09-10T22:03:28.458Z,148622.67
2018-09-10T22:05:58.458Z,148642.64
2018-09-10T22:08:28.237Z,148616.45
2018-09-10T22:10:58.696Z,148602.77
2018-09-10T22:13:28.645Z,148600.28
2018-09-10T22:15:59.312Z,148590.31
2018-09-10T22:18:29.100Z,148595.30
2018-09-10T22:20:58.940Z,148565.38
2018-09-10T22:23:28.756Z,148562.89
2018-09-10T22:25:58.570Z,148564.14
2018-09-10T22:28:28.331Z,148550.45
2018-09-10T22:30:58.025Z,148555.42
2018-09-10T22:33:27.976Z,148571.61
2018-09-10T22:35:58.815Z,148570.36
2018-09-10T22:38:29.678Z,148551.69
2018-09-10T22:40:59.535Z,148542.98
2018-09-10T22:43:29.273Z,148542.98
2018-09-10T22:45:58.993Z,148545.47
2018-09-10T22:48:28.830Z,148535.47
2018-09-10T22:50:58.615Z,148511.83
2018-09-10T22:53:28.460Z,148519.30
2018-09-10T22:55:59.713Z,148485.61
2018-09-10T22:58:29.480Z,148488.09
2018-09-10T23:00:59.243Z,148493.11
2018-09-10T23:03:29.058Z,148503.06
2018-09-10T23:05:58.983Z,148516.81
2018-09-10T23:08:28.814Z,148513.06
2018-09-10T23:10:58.499Z,148526.75
2018-09-10T23:13:28.493Z,148511.83
2018-09-10T23:15:58.304Z,148520.53
2018-09-10T23:18:28.183Z,148506.84
2018-09-10T23:20:57.853Z,148503.06
2018-09-10T23:23:27.764Z,148513.06
2018-09-10T23:25:57.536Z,148491.87
2018-09-10T23:28:27.803Z,148493.11
2018-09-10T23:30:57.760Z,148480.62
2018-09-10T23:33:27.466Z,148493.11
2018-09-10T23:35:57.106Z,148479.38
2018-09-10T23:38:27.003Z,148455.75
2018-09-10T23:40:56.832Z,148469.44
2018-09-10T23:43:26.525Z,148493.11
2018-09-10T23:45:56.191Z,148505.61
2018-09-10T23:48:26.041Z,148500.58
2018-09-10T23:50:56.042Z,148498.09
2018-09-10T23:53:26.285Z,148501.83
2018-09-10T23:55:56.265Z,148499.34
2018-09-10T23:58:25.950Z,148503.06
